createdAt,value
2022-09-28T00:02:04.658Z,9.40
2022-09-28T00:04:33.998Z,9.30
2022-09-28T00:07:02.285Z,9.30
2022-09-28T00:09:30.237Z,9.40
2022-09-28T00:11:58.640Z,9.40
2022-09-28T00:14:28.272Z,9.40
2022-09-28T00:16:56.217Z,9.30
2022-09-28T00:19:24.281Z,9.40
2022-09-28T00:21:52.264Z,9.40
2022-09-28T00:24:24.083Z,9.40
2022-09-28T00:26:56.070Z,9.40
2022-09-28T00:29:26.636Z,9.30
2022-09-28T00:32:02.297Z,9.30
2022-09-28T00:34:32.622Z,9.30
2022-09-28T00:37:01.701Z,9.30
2022-09-28T00:39:31.833Z,9.20
2022-09-28T00:42:00.405Z,9.20
2022-09-28T00:44:42.133Z,9.20
2022-09-28T00:47:46.711Z,9.20
2022-09-28T00:50:22.557Z,9.20
2022-09-28T00:52:54.846Z,9.30
2022-09-28T00:55:29.950Z,9.30
2022-09-28T00:58:01.385Z,9.30
2022-09-28T01:00:29.439Z,9.30
2022-09-28T01:02:58.627Z,9.30
2022-09-28T01:05:28.687Z,9.30
2022-09-28T01:07:58.690Z,9.30
2022-09-28T01:10:26.871Z,9.20
2022-09-28T01:12:59.245Z,9.20
2022-09-28T01:15:30.107Z,9.20
2022-09-28T01:18:08.732Z,9.30
2022-09-28T01:20:54.581Z,9.20
2022-09-28T01:24:04.069Z,9.20
2022-09-28T01:26:44.531Z,9.20
2022-09-28T01:29:20.691Z,9.20
2022-09-28T01:31:55.378Z,9.30
2022-09-28T01:34:29.926Z,9.30
2022-09-28T01:37:02.221Z,9.30
2022-09-28T01:39:35.781Z,9.30
2022-09-28T01:42:14.556Z,9.30
2022-09-28T01:44:45.778Z,9.40
2022-09-28T01:47:16.873Z,9.50
2022-09-28T01:49:48.830Z,9.50
2022-09-28T01:52:21.345Z,9.40
2022-09-28T01:54:54.661Z,9.50
2022-09-28T01:57:28.301Z,9.50
2022-09-28T02:00:02.568Z,9.40
2022-09-28T02:02:36.623Z,9.40
2022-09-28T02:05:09.611Z,9.40
2022-09-28T02:07:42.436Z,9.40
2022-09-28T02:10:17.002Z,9.40
2022-09-28T02:12:49.738Z,9.40
2022-09-28T02:15:22.992Z,9.40
2022-09-28T02:17:52.208Z,9.40
2022-09-28T02:20:26.966Z,9.50
2022-09-28T02:22:58.028Z,9.50
2022-09-28T02:25:32.311Z,9.50
2022-09-28T02:28:03.341Z,9.50
2022-09-28T02:30:33.115Z,9.60
2022-09-28T02:33:13.437Z,9.50
2022-09-28T02:35:43.270Z,9.50
2022-09-28T02:38:12.702Z,9.60
2022-09-28T02:40:43.613Z,9.60
2022-09-28T02:43:24.633Z,9.70
2022-09-28T02:46:02.424Z,9.70
2022-09-28T02:49:00.187Z,9.60
2022-09-28T02:51:34.118Z,9.60
2022-09-28T02:54:27.749Z,9.60
2022-09-28T02:57:07.452Z,9.60
2022-09-28T02:59:50.523Z,9.70
2022-09-28T03:02:26.570Z,9.80
2022-09-28T03:05:15.859Z,9.80
2022-09-28T03:07:51.597Z,9.80
2022-09-28T03:10:27.222Z,9.80
2022-09-28T03:12:56.197Z,9.70
2022-09-28T03:15:28.154Z,9.80
2022-09-28T03:17:56.303Z,9.80
2022-09-28T03:20:24.593Z,9.70
2022-09-28T03:23:19.821Z,9.70
2022-09-28T03:25:41.012Z,9.70
2022-09-28T03:28:09.110Z,9.70
2022-09-28T03:30:39.535Z,9.70
2022-09-28T03:33:07.562Z,9.70
2022-09-28T03:35:35.689Z,9.70
2022-09-28T03:38:03.755Z,9.70
2022-09-28T03:40:31.863Z,9.60
2022-09-28T03:43:01.410Z,9.60
2022-09-28T03:45:29.389Z,9.50
2022-09-28T03:47:59.443Z,9.50
2022-09-28T03:50:27.933Z,9.50
2022-09-28T03:52:56.041Z,9.40
2022-09-28T03:55:24.016Z,9.40
2022-09-28T03:58:11.142Z,9.30
2022-09-28T04:00:39.358Z,9.30
2022-09-28T04:03:09.634Z,9.30
2022-09-28T04:05:37.906Z,9.30
2022-09-28T04:08:11.288Z,9.30
2022-09-28T04:10:39.576Z,9.20
2022-09-28T04:13:07.778Z,9.20
2022-09-28T04:15:38.075Z,9.20
2022-09-28T04:18:06.994Z,9.20
2022-09-28T04:20:36.821Z,9.20
2022-09-28T04:23:06.936Z,9.20
2022-09-28T04:25:34.982Z,9.20
2022-09-28T04:28:20.778Z,9.30
2022-09-28T04:30:49.078Z,9.30
2022-09-28T04:36:42.246Z,9.30
2022-09-28T04:39:12.360Z,9.20
2022-09-28T04:41:41.748Z,9.20
2022-09-28T04:44:12.555Z,9.20
2022-09-28T04:46:56.495Z,9.10
2022-09-28T04:49:25.077Z,9.10
2022-09-28T04:51:54.860Z,9.10
2022-09-28T04:54:23.166Z,9.10
2022-09-28T04:56:53.647Z,9.10
2022-09-28T04:59:21.861Z,9.10
2022-09-28T05:01:49.865Z,9.10
2022-09-28T05:04:20.277Z,9.10
2022-09-28T05:06:50.490Z,9.20
2022-09-28T05:09:20.023Z,9.20
2022-09-28T05:11:49.987Z,9.30
2022-09-28T05:14:18.029Z,9.30
2022-09-28T05:16:46.933Z,9.30
2022-09-28T05:19:15.277Z,9.30
2022-09-28T05:21:46.826Z,9.40
2022-09-28T05:24:14.922Z,9.40
2022-09-28T05:26:44.519Z,9.30
2022-09-28T05:29:12.879Z,9.30
2022-09-28T05:31:40.912Z,9.30
2022-09-28T05:34:08.950Z,9.30
2022-09-28T05:36:39.114Z,9.20
2022-09-28T05:39:07.446Z,9.20
2022-09-28T05:41:35.370Z,9.20
2022-09-28T05:44:05.190Z,9.30
2022-09-28T05:46:33.006Z,9.20
2022-09-28T05:49:01.446Z,9.30
2022-09-28T05:51:29.564Z,9.30
2022-09-28T05:54:00.722Z,9.30
2022-09-28T05:56:33.156Z,9.30
2022-09-28T05:59:01.737Z,9.30
2022-09-28T06:01:31.275Z,9.30
2022-09-28T06:03:59.297Z,9.30
2022-09-28T06:06:27.633Z,9.30
2022-09-28T06:08:55.880Z,9.30
2022-09-28T06:11:27.092Z,9.30
2022-09-28T06:14:04.475Z,9.40
2022-09-28T06:16:38.200Z,9.40
2022-09-28T06:19:18.461Z,9.50
2022-09-28T06:21:49.189Z,9.60
2022-09-28T06:24:17.681Z,9.60
2022-09-28T06:26:48.737Z,9.70
2022-09-28T06:29:19.912Z,9.70
2022-09-28T06:31:54.647Z,9.70
2022-09-28T06:34:26.162Z,9.80
2022-09-28T06:36:54.249Z,9.80
2022-09-28T06:39:26.884Z,9.80
2022-09-28T06:41:58.782Z,9.90
2022-09-28T06:44:28.162Z,9.90
2022-09-28T06:49:51.542Z,10.10
2022-09-28T06:52:19.814Z,10.20
2022-09-28T06:54:54.522Z,10.40
2022-09-28T06:57:25.053Z,10.50
2022-09-28T06:59:53.303Z,10.70
2022-09-28T07:02:24.263Z,10.80
2022-09-28T07:04:54.418Z,10.90
2022-09-28T07:07:22.637Z,11.00
2022-09-28T07:09:56.946Z,11.20
2022-09-28T07:12:25.683Z,11.20
2022-09-28T07:14:57.429Z,11.20
2022-09-28T07:17:27.325Z,11.10
2022-09-28T07:20:01.598Z,11.10
2022-09-28T07:22:43.093Z,11.20
2022-09-28T07:25:11.619Z,11.30
2022-09-28T07:27:39.607Z,11.40
2022-09-28T07:30:09.023Z,11.40
2022-09-28T07:32:39.188Z,11.60
2022-09-28T07:35:10.141Z,11.60
2022-09-28T07:37:38.618Z,11.80
2022-09-28T07:40:26.707Z,11.90
2022-09-28T07:42:55.030Z,12.00
2022-09-28T07:45:24.555Z,12.00
2022-09-28T07:47:56.715Z,12.10
2022-09-28T07:50:25.461Z,12.10
2022-09-28T07:52:53.592Z,12.20
2022-09-28T07:55:22.038Z,12.30
2022-09-28T07:57:56.262Z,12.60
2022-09-28T08:00:24.464Z,12.80
2022-09-28T08:02:54.085Z,12.90
2022-09-28T08:05:22.354Z,12.90
2022-09-28T08:07:50.928Z,12.70
2022-09-28T08:10:19.843Z,12.70
2022-09-28T08:12:48.791Z,12.50
2022-09-28T08:15:17.107Z,12.40
2022-09-28T08:18:02.784Z,12.20
2022-09-28T08:21:10.868Z,12.10
2022-09-28T08:23:39.516Z,12.20
2022-09-28T08:26:10.996Z,12.40
2022-09-28T08:28:42.963Z,12.60
2022-09-28T08:31:11.403Z,12.70
2022-09-28T08:33:42.353Z,12.70
2022-09-28T08:36:11.491Z,12.60
2022-09-28T08:38:40.306Z,12.50
2022-09-28T08:41:17.695Z,12.50
2022-09-28T08:44:10.362Z,12.50
2022-09-28T08:46:43.525Z,12.50
2022-09-28T08:49:26.868Z,12.50
2022-09-28T08:52:03.030Z,12.60
2022-09-28T08:54:39.118Z,12.70
2022-09-28T08:57:12.382Z,12.90
2022-09-28T08:59:49.410Z,13.10
2022-09-28T09:02:21.578Z,13.40
2022-09-28T09:04:52.827Z,13.60
2022-09-28T09:07:56.208Z,13.50
2022-09-28T09:10:48.611Z,13.30
2022-09-28T09:13:34.324Z,13.20
2022-09-28T09:16:13.403Z,13.10
2022-09-28T09:18:49.695Z,13.10
2022-09-28T09:21:40.320Z,13.00
2022-09-28T09:24:21.979Z,12.80
2022-09-28T09:26:57.378Z,12.70
2022-09-28T09:29:50.631Z,12.70
2022-09-28T09:32:33.540Z,12.70
2022-09-28T09:35:26.395Z,12.70
2022-09-28T09:38:12.479Z,12.80
2022-09-28T09:41:01.727Z,12.70
2022-09-28T09:43:59.951Z,12.80
2022-09-28T09:46:38.639Z,12.60
2022-09-28T09:49:13.280Z,12.60
2022-09-28T09:51:47.084Z,12.90
2022-09-28T09:54:25.197Z,13.20
2022-09-28T09:56:57.061Z,13.40
2022-09-28T09:59:34.149Z,13.60
2022-09-28T10:02:06.845Z,13.70
2022-09-28T10:04:41.983Z,13.50
2022-09-28T10:07:14.303Z,13.10
2022-09-28T10:09:47.677Z,13.00
2022-09-28T10:12:20.492Z,13.20
2022-09-28T10:14:49.153Z,13.30
2022-09-28T10:17:20.849Z,13.30
2022-09-28T10:19:48.964Z,13.30
2022-09-28T10:22:21.203Z,13.30
2022-09-28T10:24:58.405Z,13.20
2022-09-28T10:27:29.449Z,13.10
2022-09-28T10:30:02.636Z,12.90
2022-09-28T10:32:40.154Z,12.80
2022-09-28T10:35:23.918Z,12.70
2022-09-28T10:37:55.863Z,12.70
2022-09-28T10:40:43.561Z,12.60
2022-09-28T10:43:21.938Z,12.60
2022-09-28T10:45:51.046Z,12.60
2022-09-28T10:48:23.828Z,12.60
2022-09-28T10:51:07.121Z,12.60
2022-09-28T10:53:37.271Z,12.70
2022-09-28T10:56:09.146Z,12.90
2022-09-28T10:58:42.226Z,12.90
2022-09-28T11:01:12.883Z,12.90
2022-09-28T11:03:52.636Z,13.00
2022-09-28T11:06:28.572Z,13.00
2022-09-28T11:09:01.774Z,13.10
2022-09-28T11:11:47.050Z,13.30
2022-09-28T11:14:28.522Z,13.40
2022-09-28T11:17:31.021Z,13.50
2022-09-28T11:20:06.471Z,13.70
2022-09-28T11:22:57.328Z,13.80
2022-09-28T11:25:37.819Z,13.70
2022-09-28T11:28:33.198Z,13.50
2022-09-28T11:31:23.889Z,13.10
2022-09-28T11:34:16.083Z,13.10
2022-09-28T11:37:09.496Z,13.10
2022-09-28T11:39:46.485Z,13.10
2022-09-28T11:42:29.763Z,13.10
2022-09-28T11:45:10.157Z,13.00
2022-09-28T11:47:55.660Z,12.90
2022-09-28T11:50:30.471Z,12.90
2022-09-28T11:53:22.457Z,12.90
2022-09-28T11:55:56.373Z,12.90
2022-09-28T11:58:30.563Z,13.00
2022-09-28T12:01:06.179Z,13.10
2022-09-28T12:03:41.175Z,13.20
2022-09-28T12:06:30.868Z,13.20
2022-09-28T12:09:35.996Z,13.30
2022-09-28T12:12:14.174Z,13.30
2022-09-28T12:14:43.504Z,13.30
2022-09-28T12:17:26.768Z,13.20
2022-09-28T12:24:00.724Z,13.00
2022-09-28T12:26:37.904Z,13.00
2022-09-28T12:29:58.644Z,12.90
2022-09-28T12:32:37.452Z,12.90
2022-09-28T12:35:46.018Z,13.00
2022-09-28T12:38:42.483Z,13.00
2022-09-28T12:41:26.758Z,12.90
2022-09-28T12:44:29.437Z,12.90
2022-09-28T12:47:20.983Z,12.90
2022-09-28T12:53:31.175Z,12.80
2022-09-28T12:56:10.403Z,12.80
2022-09-28T12:58:55.957Z,12.80
2022-09-28T13:02:30.729Z,12.80
2022-09-28T13:05:19.851Z,12.80
2022-09-28T13:07:57.163Z,12.80
2022-09-28T13:10:39.353Z,12.80
2022-09-28T13:13:36.018Z,12.80
2022-09-28T13:16:12.399Z,12.80
2022-09-28T13:18:46.501Z,12.80
2022-09-28T13:21:42.851Z,12.80
2022-09-28T13:24:31.698Z,12.90
2022-09-28T13:27:10.337Z,12.90
2022-09-28T13:29:40.762Z,13.00
2022-09-28T13:32:26.554Z,13.00
2022-09-28T13:35:27.864Z,13.10
2022-09-28T13:38:38.724Z,13.10
2022-09-28T13:41:22.056Z,13.20
2022-09-28T13:44:29.372Z,13.20
2022-09-28T13:47:36.292Z,13.20
2022-09-28T13:50:28.037Z,13.20
2022-09-28T13:53:21.657Z,13.20
2022-09-28T13:56:13.583Z,13.20
2022-09-28T13:58:57.938Z,13.10
2022-09-28T14:01:33.703Z,13.10
2022-09-28T14:04:21.265Z,13.10
2022-09-28T14:06:55.646Z,13.10
2022-09-28T14:09:49.734Z,13.00
2022-09-28T14:12:45.910Z,13.10
2022-09-28T14:19:44.910Z,13.00
2022-09-28T14:22:24.806Z,13.00
2022-09-28T14:25:06.612Z,13.00
2022-09-28T14:28:03.499Z,12.90
2022-09-28T14:30:53.277Z,13.00
2022-09-28T14:33:49.573Z,13.00
2022-09-28T14:37:15.097Z,13.10
2022-09-28T14:40:13.169Z,13.10
2022-09-28T14:43:26.568Z,13.10
2022-09-28T14:46:29.582Z,13.10
2022-09-28T14:49:05.675Z,13.00
2022-09-28T14:52:05.625Z,13.10
2022-09-28T14:54:53.616Z,13.10
2022-09-28T14:57:25.592Z,13.10
2022-09-28T15:00:00.991Z,13.10
2022-09-28T15:02:33.107Z,13.10
2022-09-28T15:05:15.993Z,13.10
2022-09-28T15:07:48.271Z,13.10
2022-09-28T15:10:27.837Z,13.10
2022-09-28T15:12:58.215Z,13.10
2022-09-28T15:15:34.659Z,13.10
2022-09-28T15:18:36.850Z,13.10
2022-09-28T15:21:20.814Z,13.10
2022-09-28T15:23:49.946Z,13.10
2022-09-28T15:26:27.386Z,13.00
2022-09-28T15:28:59.029Z,13.10
2022-09-28T15:31:32.834Z,13.00
2022-09-28T15:34:36.648Z,13.00
2022-09-28T15:38:08.335Z,13.00
2022-09-28T15:41:09.778Z,13.00
2022-09-28T15:43:39.388Z,13.00
2022-09-28T15:46:13.495Z,13.00
2022-09-28T15:48:52.158Z,12.90
2022-09-28T15:51:22.092Z,12.90
2022-09-28T15:54:00.302Z,12.90
2022-09-28T15:56:29.850Z,12.90
2022-09-28T15:59:12.116Z,12.90
2022-09-28T16:01:46.013Z,12.90
2022-09-28T16:04:51.796Z,12.90
2022-09-28T16:07:25.562Z,12.90
2022-09-28T16:10:00.548Z,12.80
2022-09-28T16:12:35.152Z,12.70
2022-09-28T16:15:12.915Z,12.70
2022-09-28T16:17:41.933Z,12.70
2022-09-28T16:20:28.263Z,12.70
2022-09-28T16:22:59.467Z,12.60
2022-09-28T16:25:28.792Z,12.60
2022-09-28T16:27:57.148Z,12.60
2022-09-28T16:30:27.799Z,12.60
2022-09-28T16:32:58.005Z,12.60
2022-09-28T16:35:30.211Z,12.60
2022-09-28T16:38:01.501Z,12.70
2022-09-28T16:40:30.577Z,12.70
2022-09-28T16:43:03.928Z,12.70
2022-09-28T16:45:32.991Z,12.70
2022-09-28T16:48:03.052Z,12.60
2022-09-28T16:50:32.643Z,12.70
2022-09-28T16:53:25.268Z,12.70
2022-09-28T16:55:53.131Z,12.70
2022-09-28T16:58:22.386Z,12.70
2022-09-28T17:00:50.482Z,12.70
2022-09-28T17:03:19.452Z,12.70
2022-09-28T17:05:49.399Z,12.70
2022-09-28T17:08:19.503Z,12.60
2022-09-28T17:11:16.594Z,12.60
2022-09-28T17:13:43.988Z,12.60
2022-09-28T17:16:19.185Z,12.60
2022-09-28T17:19:02.613Z,12.60
2022-09-28T17:21:50.091Z,12.60
2022-09-28T17:24:18.869Z,12.50
2022-09-28T17:27:03.522Z,12.50
2022-09-28T17:29:34.640Z,12.50
2022-09-28T17:32:03.448Z,12.40
2022-09-28T17:34:35.578Z,12.40
2022-09-28T17:37:09.045Z,12.50
2022-09-28T17:39:42.011Z,12.40
2022-09-28T17:42:12.065Z,12.40
2022-09-28T17:44:40.325Z,12.40
2022-09-28T17:47:13.538Z,12.30
2022-09-28T17:49:42.186Z,12.30
2022-09-28T17:52:11.747Z,12.20
2022-09-28T17:54:39.914Z,12.20
2022-09-28T17:57:08.005Z,12.20
2022-09-28T17:59:35.989Z,12.10
2022-09-28T18:02:04.106Z,12.10
2022-09-28T18:04:51.378Z,12.00
2022-09-28T18:07:21.648Z,12.00
2022-09-28T18:09:56.708Z,12.00
2022-09-28T18:12:25.267Z,12.00
2022-09-28T18:14:53.279Z,11.90
2022-09-28T18:17:21.430Z,11.90
2022-09-28T18:19:49.382Z,11.90
2022-09-28T18:22:18.183Z,11.90
2022-09-28T18:24:47.924Z,12.00
2022-09-28T18:27:16.050Z,12.00
2022-09-28T18:29:43.970Z,12.00
2022-09-28T18:32:12.151Z,11.90
2022-09-28T18:34:40.153Z,11.90
2022-09-28T18:37:08.709Z,11.90
2022-09-28T18:39:36.833Z,11.90
2022-09-28T18:42:06.685Z,11.90
2022-09-28T18:44:35.067Z,11.90
2022-09-28T18:47:03.629Z,11.90
2022-09-28T18:49:33.786Z,11.90
2022-09-28T18:52:02.479Z,11.90
2022-09-28T18:54:31.171Z,11.90
2022-09-28T18:56:59.239Z,11.90
2022-09-28T18:59:29.079Z,11.90
2022-09-28T19:01:57.349Z,11.90
2022-09-28T19:04:26.034Z,11.80
2022-09-28T19:06:54.466Z,11.80
2022-09-28T19:09:24.686Z,11.80
2022-09-28T19:11:54.553Z,11.70
2022-09-28T19:14:23.077Z,11.70
2022-09-28T19:16:52.987Z,11.70
2022-09-28T19:19:21.740Z,11.70
2022-09-28T19:21:50.164Z,11.70
2022-09-28T19:24:20.121Z,11.70
2022-09-28T19:26:53.418Z,11.70
2022-09-28T19:29:21.926Z,11.70
2022-09-28T19:31:52.303Z,11.70
2022-09-28T19:34:24.495Z,11.70
2022-09-28T19:36:52.702Z,11.60
2022-09-28T19:39:20.660Z,11.50
2022-09-28T19:41:51.460Z,11.40
2022-09-28T19:44:25.791Z,11.40
2022-09-28T19:46:56.911Z,11.40
2022-09-28T19:49:27.657Z,11.40
2022-09-28T19:52:14.697Z,11.40
2022-09-28T19:54:45.020Z,11.40
2022-09-28T19:57:15.057Z,11.50
2022-09-28T19:59:44.144Z,11.40
2022-09-28T20:02:14.106Z,11.50
2022-09-28T20:04:42.336Z,11.50
2022-09-28T20:07:10.560Z,11.50
2022-09-28T20:09:39.152Z,11.50
2022-09-28T20:12:07.812Z,11.40
2022-09-28T20:14:39.512Z,11.30
2022-09-28T20:17:08.700Z,11.30
2022-09-28T20:19:38.598Z,11.30
2022-09-28T20:22:06.703Z,11.30
2022-09-28T20:24:34.911Z,11.30
2022-09-28T20:27:03.443Z,11.20
2022-09-28T20:29:33.486Z,11.20
2022-09-28T20:32:05.774Z,11.10
2022-09-28T20:34:34.681Z,11.00
2022-09-28T20:37:04.477Z,11.00
2022-09-28T20:39:34.096Z,11.00
2022-09-28T20:42:04.236Z,11.00
2022-09-28T20:44:32.393Z,11.00
2022-09-28T20:47:01.266Z,10.90
2022-09-28T20:49:31.591Z,11.00
2022-09-28T20:52:00.391Z,11.00
2022-09-28T20:54:30.312Z,11.00
2022-09-28T20:57:01.358Z,11.00
2022-09-28T20:59:31.201Z,11.00
2022-09-28T21:01:59.820Z,11.00
2022-09-28T21:04:28.504Z,11.00
2022-09-28T21:06:56.974Z,10.90
2022-09-28T21:09:25.192Z,10.90
2022-09-28T21:11:56.035Z,10.80
2022-09-28T21:14:24.539Z,10.80
2022-09-28T21:16:53.087Z,10.80
2022-09-28T21:19:22.443Z,10.70
2022-09-28T21:21:52.083Z,10.80
2022-09-28T21:24:20.522Z,10.70
2022-09-28T21:26:48.839Z,10.70
2022-09-28T21:29:18.557Z,10.60
2022-09-28T21:31:48.034Z,10.60
2022-09-28T21:34:20.147Z,10.50
2022-09-28T21:36:51.354Z,10.50
2022-09-28T21:39:20.537Z,10.40
2022-09-28T21:41:48.745Z,10.40
2022-09-28T21:44:18.779Z,10.40
2022-09-28T21:46:46.939Z,10.30
2022-09-28T21:49:15.031Z,10.40
2022-09-28T21:51:43.128Z,10.40
2022-09-28T21:54:12.185Z,10.30
2022-09-28T21:56:40.844Z,10.40
2022-09-28T21:59:09.204Z,10.30
2022-09-28T22:01:42.749Z,10.30
2022-09-28T22:04:11.538Z,10.20
2022-09-28T22:06:41.437Z,10.20
2022-09-28T22:09:09.746Z,10.20
2022-09-28T22:11:38.447Z,10.10
2022-09-28T22:14:06.544Z,10.10
2022-09-28T22:16:34.698Z,10.10
2022-09-28T22:19:04.312Z,10.20
2022-09-28T22:21:35.099Z,10.20
2022-09-28T22:24:04.798Z,10.10
2022-09-28T22:26:33.968Z,10.10
2022-09-28T22:29:04.413Z,10.10
2022-09-28T22:31:34.047Z,10.10
2022-09-28T22:34:05.379Z,10.10
2022-09-28T22:36:33.551Z,10.10
2022-09-28T22:39:02.226Z,10.10
2022-09-28T22:41:30.626Z,10.10
2022-09-28T22:43:59.021Z,10.10
2022-09-28T22:46:28.671Z,10.10
2022-09-28T22:48:58.639Z,10.00
2022-09-28T22:51:31.433Z,10.10
2022-09-28T22:54:00.171Z,10.00
2022-09-28T22:56:28.824Z,10.00
2022-09-28T22:58:56.975Z,10.00
2022-09-28T23:01:27.103Z,10.00
2022-09-28T23:03:55.966Z,9.90
2022-09-28T23:06:26.663Z,10.00
2022-09-28T23:08:59.538Z,10.00
2022-09-28T23:11:28.215Z,10.00
2022-09-28T23:13:57.882Z,10.10
2022-09-28T23:16:27.643Z,10.00
2022-09-28T23:18:56.820Z,9.90
2022-09-28T23:21:27.058Z,9.90
2022-09-28T23:23:58.324Z,9.90
2022-09-28T23:26:28.510Z,9.60
2022-09-28T23:28:56.936Z,9.50
2022-09-28T23:31:26.570Z,9.60
2022-09-28T23:33:59.123Z,9.60
2022-09-28T23:36:27.539Z,9.70
2022-09-28T23:38:57.456Z,9.60
2022-09-28T23:41:25.933Z,9.40
2022-09-28T23:43:56.388Z,9.30
2022-09-28T23:46:24.563Z,9.30
2022-09-28T23:48:53.135Z,9.30
2022-09-28T23:51:21.324Z,9.40
2022-09-28T23:53:49.694Z,9.50
2022-09-28T23:56:21.061Z,9.40
2022-09-28T23:58:49.386Z,9.40
